createdAt,value
2024-02-16T00:01:42.368Z,5.22
2024-02-16T00:04:10.757Z,5.27
2024-02-16T00:06:39.227Z,5.22
2024-02-16T00:09:11.441Z,5.27
2024-02-16T00:11:40.026Z,5.33
2024-02-16T00:14:08.450Z,5.32
2024-02-16T00:16:37.038Z,5.31
2024-02-16T00:19:05.763Z,5.29
2024-02-16T00:21:34.346Z,5.24
2024-02-16T00:24:04.217Z,5.26
2024-02-16T00:26:34.226Z,5.20
2024-02-16T00:29:02.703Z,5.27
2024-02-16T00:31:33.536Z,5.22
2024-02-16T00:34:02.108Z,5.27
2024-02-16T00:36:32.029Z,5.25
2024-02-16T00:39:00.859Z,5.23
2024-02-16T00:41:29.322Z,5.19
2024-02-16T00:43:59.159Z,5.21
2024-02-16T00:46:27.734Z,5.19
2024-02-16T00:48:56.441Z,5.19
2024-02-16T00:51:27.563Z,5.17
2024-02-16T00:53:56.096Z,5.17
2024-02-16T00:56:24.735Z,5.12
2024-02-16T00:58:53.178Z,5.07
2024-02-16T01:01:23.984Z,5.01
2024-02-16T01:03:53.222Z,5.00
2024-02-16T01:06:22.086Z,5.02
2024-02-16T01:08:50.736Z,5.03
2024-02-16T01:11:20.686Z,5.04
2024-02-16T01:13:49.324Z,4.98
2024-02-16T01:16:18.878Z,4.93
2024-02-16T01:18:48.890Z,4.94
2024-02-16T01:21:17.789Z,4.95
2024-02-16T01:23:46.215Z,4.95
2024-02-16T01:26:15.011Z,4.97
2024-02-16T01:28:43.587Z,4.97
2024-02-16T01:31:13.032Z,4.93
2024-02-16T01:33:41.600Z,4.99
2024-02-16T01:36:11.961Z,4.96
2024-02-16T01:38:40.341Z,4.96
2024-02-16T01:41:10.229Z,5.01
2024-02-16T01:43:38.646Z,4.95
2024-02-16T01:46:07.130Z,4.94
2024-02-16T01:48:35.818Z,4.97
2024-02-16T01:51:04.802Z,4.95
2024-02-16T01:53:34.900Z,4.99
2024-02-16T01:56:03.444Z,5.04
2024-02-16T01:58:31.953Z,5.05
2024-02-16T02:01:00.465Z,5.03
2024-02-16T02:03:29.035Z,5.04
2024-02-16T02:05:57.822Z,5.03
2024-02-16T02:08:28.558Z,5.05
2024-02-16T02:10:58.404Z,5.05
2024-02-16T02:13:26.817Z,4.99
2024-02-16T02:15:56.638Z,4.99
2024-02-16T02:18:25.367Z,5.08
2024-02-16T02:20:54.867Z,5.06
2024-02-16T02:23:24.660Z,5.06
2024-02-16T02:25:53.048Z,5.09
2024-02-16T02:28:25.175Z,5.08
2024-02-16T02:30:54.792Z,5.08
2024-02-16T02:33:23.449Z,5.09
2024-02-16T02:35:52.661Z,5.10
2024-02-16T02:38:21.054Z,5.07
2024-02-16T02:40:51.509Z,5.06
2024-02-16T02:43:23.228Z,5.08
2024-02-16T02:45:51.609Z,5.11
2024-02-16T02:48:20.036Z,5.10
2024-02-16T02:50:48.718Z,5.08
2024-02-16T02:53:17.419Z,5.05
2024-02-16T02:55:45.768Z,5.07
2024-02-16T02:58:15.723Z,5.02
2024-02-16T03:00:44.242Z,4.99
2024-02-16T03:03:12.852Z,5.01
2024-02-16T03:05:44.524Z,5.05
2024-02-16T03:08:13.152Z,5.07
2024-02-16T03:10:41.540Z,5.06
2024-02-16T03:13:10.357Z,5.01
2024-02-16T03:15:40.220Z,5.02
2024-02-16T03:18:10.554Z,5.02
2024-02-16T03:20:40.090Z,5.05
2024-02-16T03:23:08.460Z,4.98
2024-02-16T03:25:36.799Z,5.04
2024-02-16T03:28:05.522Z,5.05
2024-02-16T03:30:35.004Z,5.02
2024-02-16T03:33:05.059Z,5.01
2024-02-16T03:35:33.560Z,5.06
2024-02-16T03:38:01.924Z,4.99
2024-02-16T03:40:30.869Z,4.96
2024-02-16T03:42:59.514Z,4.97
2024-02-16T03:45:29.820Z,5.01
2024-02-16T03:47:58.481Z,5.04
2024-02-16T03:50:28.589Z,5.03
2024-02-16T03:52:56.939Z,5.04
2024-02-16T03:55:25.315Z,5.02
2024-02-16T03:57:53.939Z,4.97
2024-02-16T04:00:22.547Z,4.95
2024-02-16T04:02:50.978Z,4.90
2024-02-16T04:05:19.549Z,4.98
2024-02-16T04:07:49.317Z,4.93
2024-02-16T04:10:17.851Z,5.00
2024-02-16T04:12:46.278Z,5.02
2024-02-16T04:15:15.056Z,5.00
2024-02-16T04:17:44.118Z,5.00
2024-02-16T04:20:13.565Z,4.95
2024-02-16T04:22:41.985Z,4.94
2024-02-16T04:25:12.073Z,5.00
2024-02-16T04:27:40.855Z,5.00
2024-02-16T04:30:10.206Z,5.00
2024-02-16T04:32:38.747Z,4.96
2024-02-16T04:35:08.108Z,4.95
2024-02-16T04:37:36.610Z,5.00
2024-02-16T04:40:07.065Z,4.98
2024-02-16T04:42:37.042Z,5.00
2024-02-16T04:45:06.847Z,5.01
2024-02-16T04:47:35.968Z,5.02
2024-02-16T04:50:04.629Z,5.00
2024-02-16T04:52:33.094Z,4.96
2024-02-16T04:55:01.654Z,5.01
2024-02-16T04:57:30.224Z,5.00
2024-02-16T05:00:00.085Z,4.98
2024-02-16T05:02:28.521Z,4.95
2024-02-16T05:04:57.796Z,4.94
2024-02-16T05:07:27.592Z,4.96
2024-02-16T05:09:59.661Z,5.01
2024-02-16T05:12:28.551Z,5.05
2024-02-16T05:14:57.478Z,5.07
2024-02-16T05:17:27.658Z,5.03
2024-02-16T05:19:56.373Z,4.99
2024-02-16T05:22:24.868Z,5.01
2024-02-16T05:24:53.424Z,5.00
2024-02-16T05:27:21.850Z,4.98
2024-02-16T05:29:51.875Z,4.99
2024-02-16T05:32:20.355Z,5.04
2024-02-16T05:34:50.893Z,5.00
2024-02-16T05:37:21.509Z,5.03
2024-02-16T05:39:58.446Z,5.00
2024-02-16T05:42:27.436Z,5.01
2024-02-16T05:44:56.212Z,5.02
2024-02-16T05:47:24.749Z,5.00
2024-02-16T05:49:54.762Z,5.00
2024-02-16T05:52:24.461Z,5.10
2024-02-16T05:54:53.064Z,5.06
2024-02-16T05:57:21.594Z,5.05
2024-02-16T05:59:52.510Z,5.07
2024-02-16T06:02:21.668Z,5.07
2024-02-16T06:04:51.059Z,5.01
2024-02-16T06:07:21.116Z,5.03
2024-02-16T06:09:54.182Z,5.05
2024-02-16T06:12:23.077Z,4.97
2024-02-16T06:14:51.645Z,4.95
2024-02-16T06:17:20.048Z,5.03
2024-02-16T06:19:49.373Z,5.08
2024-02-16T06:22:17.891Z,5.04
2024-02-16T06:24:47.816Z,5.04
2024-02-16T06:27:17.084Z,4.99
2024-02-16T06:29:45.532Z,4.99
2024-02-16T06:32:15.019Z,5.02
2024-02-16T06:34:43.635Z,5.03
2024-02-16T06:37:12.116Z,5.05
2024-02-16T06:39:41.153Z,5.04
2024-02-16T06:42:13.867Z,5.00
2024-02-16T06:44:42.833Z,5.04
2024-02-16T06:47:11.450Z,5.08
2024-02-16T06:49:39.828Z,5.07
2024-02-16T06:52:10.581Z,5.09
2024-02-16T06:54:39.100Z,4.98
2024-02-16T06:57:10.434Z,4.97
2024-02-16T06:59:41.723Z,4.97
2024-02-16T07:02:10.569Z,4.89
2024-02-16T07:04:39.122Z,4.93
2024-02-16T07:07:07.983Z,4.99
2024-02-16T07:09:36.770Z,5.03
2024-02-16T07:12:07.098Z,5.07
2024-02-16T07:14:35.567Z,5.09
2024-02-16T07:17:08.774Z,5.09
2024-02-16T07:19:37.218Z,5.09
2024-02-16T07:22:08.019Z,5.12
2024-02-16T07:24:36.840Z,5.13
2024-02-16T07:27:05.471Z,5.12
2024-02-16T07:29:33.865Z,5.16
2024-02-16T07:32:02.451Z,5.19
2024-02-16T07:34:32.431Z,5.07
2024-02-16T07:37:00.923Z,5.13
2024-02-16T07:39:30.213Z,5.15
2024-02-16T07:41:58.886Z,5.14
2024-02-16T07:44:27.332Z,5.17
2024-02-16T07:46:55.709Z,5.15
2024-02-16T07:49:24.232Z,5.14
2024-02-16T07:51:54.162Z,5.22
2024-02-16T07:54:22.587Z,5.27
2024-02-16T07:56:52.921Z,5.30
2024-02-16T07:59:21.739Z,5.38
2024-02-16T08:01:50.169Z,5.39
2024-02-16T08:04:24.431Z,5.44
2024-02-16T08:06:54.409Z,5.41
2024-02-16T08:09:22.844Z,5.44
2024-02-16T08:11:51.610Z,5.40
2024-02-16T08:14:20.940Z,5.41
2024-02-16T08:16:50.401Z,5.33
2024-02-16T08:19:21.733Z,5.26
2024-02-16T08:21:50.198Z,5.21
2024-02-16T08:24:20.385Z,5.22
2024-02-16T08:26:48.784Z,5.29
2024-02-16T08:29:17.181Z,5.38
2024-02-16T08:31:46.242Z,5.44
2024-02-16T08:34:15.926Z,5.54
2024-02-16T08:36:46.818Z,5.63
2024-02-16T08:39:14.729Z,5.68
2024-02-16T08:41:45.380Z,5.63
2024-02-16T08:44:13.807Z,5.63
2024-02-16T08:46:42.445Z,5.64
2024-02-16T08:49:11.843Z,5.64
2024-02-16T08:51:40.540Z,5.69
2024-02-16T08:54:10.859Z,5.65
2024-02-16T08:56:41.021Z,5.66
2024-02-16T08:59:10.977Z,5.63
2024-02-16T09:01:40.663Z,5.66
2024-02-16T09:04:09.264Z,5.59
2024-02-16T09:06:38.306Z,5.71
2024-02-16T09:09:08.179Z,5.70
2024-02-16T09:11:37.698Z,5.57
2024-02-16T09:14:06.081Z,5.53
2024-02-16T09:16:35.884Z,5.58
2024-02-16T09:19:04.612Z,5.56
2024-02-16T09:21:33.098Z,5.62
2024-02-16T09:24:03.083Z,5.60
2024-02-16T09:26:34.914Z,5.67
2024-02-16T09:29:03.653Z,5.66
2024-02-16T09:31:32.007Z,5.62
2024-02-16T09:34:01.828Z,5.69
2024-02-16T09:36:30.198Z,5.61
2024-02-16T09:38:58.631Z,5.68
2024-02-16T09:41:27.150Z,5.62
2024-02-16T09:43:55.642Z,5.68
2024-02-16T09:46:25.697Z,5.68
2024-02-16T09:48:55.549Z,5.66
2024-02-16T09:51:25.828Z,5.66
2024-02-16T09:53:59.637Z,5.67
2024-02-16T09:56:28.559Z,5.66
2024-02-16T09:58:57.254Z,5.64
2024-02-16T10:01:26.252Z,5.68
2024-02-16T10:03:55.027Z,5.70
2024-02-16T10:06:25.155Z,5.56
2024-02-16T10:08:55.005Z,5.59
2024-02-16T10:11:25.967Z,5.44
2024-02-16T10:13:58.854Z,5.47
2024-02-16T10:16:29.152Z,5.47
2024-02-16T10:19:00.029Z,5.48
2024-02-16T10:21:30.917Z,5.48
2024-02-16T10:24:05.732Z,5.42
2024-02-16T10:26:38.473Z,5.41
2024-02-16T10:29:09.390Z,5.34
2024-02-16T10:31:37.981Z,5.29
2024-02-16T10:34:08.304Z,5.21
2024-02-16T10:36:39.740Z,5.17
2024-02-16T10:39:10.084Z,5.10
2024-02-16T10:41:40.615Z,5.06
2024-02-16T10:44:09.057Z,5.09
2024-02-16T10:46:37.472Z,5.06
2024-02-16T10:49:07.842Z,5.09
2024-02-16T10:51:41.714Z,5.09
2024-02-16T10:54:11.329Z,5.22
2024-02-16T10:56:40.718Z,5.21
2024-02-16T10:59:12.218Z,5.20
2024-02-16T11:01:41.747Z,5.28
2024-02-16T11:04:11.856Z,5.34
2024-02-16T11:07:01.214Z,5.46
2024-02-16T11:09:30.368Z,5.40
2024-02-16T11:12:02.405Z,5.52
2024-02-16T11:14:37.840Z,5.60
2024-02-16T11:17:12.139Z,5.54
2024-02-16T11:19:42.724Z,5.58
2024-02-16T11:22:14.093Z,5.64
2024-02-16T11:24:46.755Z,5.56
2024-02-16T11:27:16.923Z,5.52
2024-02-16T11:29:45.583Z,5.46
2024-02-16T11:32:14.180Z,5.42
2024-02-16T11:34:43.281Z,5.50
2024-02-16T11:37:16.099Z,5.46
2024-02-16T11:39:46.753Z,5.47
2024-02-16T11:42:16.488Z,5.46
2024-02-16T11:44:54.675Z,5.37
2024-02-16T11:47:27.748Z,5.45
2024-02-16T11:50:05.976Z,5.59
2024-02-16T11:52:36.782Z,5.58
2024-02-16T11:55:06.347Z,5.59
2024-02-16T11:57:35.534Z,5.53
2024-02-16T12:00:09.058Z,5.55
2024-02-16T12:02:38.564Z,5.58
2024-02-16T12:05:08.818Z,5.59
2024-02-16T12:07:42.162Z,5.46
2024-02-16T12:10:11.971Z,5.55
2024-02-16T12:12:40.672Z,5.51
2024-02-16T12:15:10.173Z,5.45
2024-02-16T12:17:38.555Z,5.45
2024-02-16T12:20:15.251Z,5.40
2024-02-16T12:22:45.789Z,5.41
2024-02-16T12:25:18.770Z,5.38
2024-02-16T12:27:47.417Z,5.38
2024-02-16T12:30:17.243Z,5.39
2024-02-16T12:32:45.829Z,5.40
2024-02-16T12:35:14.470Z,5.44
2024-02-16T12:37:44.408Z,5.47
2024-02-16T12:40:13.258Z,5.35
2024-02-16T12:42:42.159Z,5.24
2024-02-16T12:45:11.932Z,5.14
2024-02-16T12:47:40.602Z,5.19
2024-02-16T12:50:09.949Z,5.23
2024-02-16T12:52:47.024Z,5.23
2024-02-16T12:55:21.108Z,5.25
2024-02-16T12:57:50.180Z,5.28
2024-02-16T13:00:19.690Z,5.39
2024-02-16T13:02:48.120Z,5.33
2024-02-16T13:05:16.848Z,5.24
2024-02-16T13:07:45.633Z,5.17
2024-02-16T13:10:14.338Z,5.16
2024-02-16T13:12:45.030Z,5.11
2024-02-16T13:15:23.056Z,5.04
2024-02-16T13:17:57.366Z,4.96
2024-02-16T13:20:26.248Z,5.01
2024-02-16T13:22:54.793Z,5.04
2024-02-16T13:25:23.562Z,5.00
2024-02-16T13:27:53.335Z,5.04
2024-02-16T13:30:21.813Z,5.03
2024-02-16T13:32:50.261Z,5.02
2024-02-16T13:35:21.439Z,5.03
2024-02-16T13:37:50.560Z,4.78
2024-02-16T13:40:19.670Z,4.67
2024-02-16T13:42:49.116Z,4.58
2024-02-16T13:45:19.178Z,4.41
2024-02-16T13:47:47.664Z,4.35
2024-02-16T13:50:16.335Z,4.34
2024-02-16T13:52:44.963Z,4.27
2024-02-16T13:55:13.562Z,4.15
2024-02-16T13:57:42.213Z,4.19
2024-02-16T14:00:11.450Z,4.08
2024-02-16T14:02:41.419Z,4.13
2024-02-16T14:05:09.826Z,4.05
2024-02-16T14:07:46.483Z,4.12
2024-02-16T14:10:19.693Z,4.01
2024-02-16T14:12:48.528Z,4.14
2024-02-16T14:15:17.923Z,4.07
2024-02-16T14:17:48.225Z,4.10
2024-02-16T14:20:16.876Z,4.08
2024-02-16T14:22:45.295Z,4.13
2024-02-16T14:25:14.845Z,4.11
2024-02-16T14:27:44.469Z,4.11
2024-02-16T14:30:14.360Z,4.17
2024-02-16T14:32:43.242Z,4.16
2024-02-16T14:35:13.365Z,4.10
2024-02-16T14:37:41.819Z,4.05
2024-02-16T14:40:12.699Z,4.01
2024-02-16T14:42:41.974Z,4.08
2024-02-16T14:45:21.198Z,4.06
2024-02-16T14:47:50.578Z,4.12
2024-02-16T14:50:20.655Z,4.07
2024-02-16T14:52:49.297Z,4.07
2024-02-16T14:55:17.714Z,4.03
2024-02-16T14:57:46.627Z,4.07
2024-02-16T15:00:16.097Z,4.03
2024-02-16T15:02:44.903Z,3.99
2024-02-16T15:05:14.193Z,4.06
2024-02-16T15:07:44.358Z,3.98
2024-02-16T15:10:13.195Z,4.01
2024-02-16T15:12:44.458Z,3.94
2024-02-16T15:15:14.175Z,3.89
2024-02-16T15:17:42.977Z,3.91
2024-02-16T15:20:11.907Z,3.88
2024-02-16T15:22:48.674Z,3.83
2024-02-16T15:25:23.309Z,3.73
2024-02-16T15:27:52.057Z,3.82
2024-02-16T15:30:20.570Z,3.86
2024-02-16T15:32:52.048Z,3.90
2024-02-16T15:35:22.619Z,3.79
2024-02-16T15:37:51.097Z,3.83
2024-02-16T15:40:20.028Z,3.82
2024-02-16T15:43:04.250Z,3.70
2024-02-16T15:45:32.949Z,3.63
2024-02-16T15:48:01.740Z,3.51
2024-02-16T15:50:31.726Z,3.45
2024-02-16T15:53:00.356Z,3.49
2024-02-16T15:55:28.762Z,3.47
2024-02-16T15:57:57.127Z,3.45
2024-02-16T16:00:27.282Z,3.49
2024-02-16T16:02:55.877Z,3.57
2024-02-16T16:05:24.348Z,3.62
2024-02-16T16:07:53.424Z,3.61
2024-02-16T16:10:21.832Z,3.56
2024-02-16T16:12:50.484Z,3.52
2024-02-16T16:15:19.369Z,3.49
2024-02-16T16:17:49.299Z,3.41
2024-02-16T16:20:18.435Z,3.40
2024-02-16T16:22:47.032Z,3.44
2024-02-16T16:25:15.734Z,3.42
2024-02-16T16:27:48.797Z,3.45
2024-02-16T16:30:17.721Z,3.48
2024-02-16T16:32:46.336Z,3.47
2024-02-16T16:35:16.438Z,3.47
2024-02-16T16:37:44.943Z,3.44
2024-02-16T16:40:14.191Z,3.40
2024-02-16T16:42:42.739Z,3.45
2024-02-16T16:45:12.943Z,3.46
2024-02-16T16:47:41.399Z,3.47
2024-02-16T16:50:11.788Z,3.53
2024-02-16T16:52:43.670Z,3.53
2024-02-16T16:55:12.044Z,3.58
2024-02-16T16:57:40.502Z,3.52
2024-02-16T17:00:10.062Z,3.57
2024-02-16T17:02:38.499Z,3.57
2024-02-16T17:05:08.634Z,3.57
2024-02-16T17:07:37.362Z,3.57
2024-02-16T17:10:09.340Z,3.54
2024-02-16T17:12:37.778Z,3.54
2024-02-16T17:15:07.638Z,3.55
2024-02-16T17:17:36.364Z,3.51
2024-02-16T17:20:05.083Z,3.51
2024-02-16T17:22:33.650Z,3.51
2024-02-16T17:25:05.176Z,3.53
2024-02-16T17:27:35.109Z,3.47
2024-02-16T17:30:05.218Z,3.48
2024-02-16T17:32:35.297Z,3.44
2024-02-16T17:35:04.242Z,3.46
2024-02-16T17:37:32.744Z,3.44
2024-02-16T17:40:01.230Z,3.42
2024-02-16T17:42:29.784Z,3.38
2024-02-16T17:44:59.999Z,3.35
2024-02-16T17:47:28.463Z,3.43
2024-02-16T17:50:11.021Z,3.36
2024-02-16T17:52:40.013Z,3.35
2024-02-16T17:55:09.148Z,3.28
2024-02-16T17:57:37.738Z,3.20
2024-02-16T18:00:09.116Z,3.19
2024-02-16T18:02:41.184Z,3.22
2024-02-16T18:05:13.695Z,3.13
2024-02-16T18:07:42.256Z,3.20
2024-02-16T18:10:12.422Z,3.23
2024-02-16T18:12:41.352Z,3.23
2024-02-16T18:15:14.095Z,3.25
2024-02-16T18:17:42.979Z,3.26
2024-02-16T18:20:14.620Z,3.13
2024-02-16T18:22:43.225Z,3.16
2024-02-16T18:25:11.791Z,3.19
2024-02-16T18:27:40.492Z,3.15
2024-02-16T18:30:11.917Z,3.20
2024-02-16T18:32:40.399Z,3.17
2024-02-16T18:35:09.563Z,3.13
2024-02-16T18:37:38.103Z,3.11
2024-02-16T18:40:09.947Z,3.14
2024-02-16T18:42:38.854Z,3.08
2024-02-16T18:45:10.069Z,3.09
2024-02-16T18:47:41.240Z,3.05
2024-02-16T18:50:11.783Z,3.09
2024-02-16T18:52:41.379Z,3.07
2024-02-16T18:55:10.399Z,3.09
2024-02-16T18:57:38.989Z,3.08
2024-02-16T19:00:10.127Z,3.05
2024-02-16T19:02:44.500Z,2.98
2024-02-16T19:05:13.623Z,2.99
2024-02-16T19:07:42.073Z,2.98
2024-02-16T19:10:12.219Z,2.97
2024-02-16T19:12:40.772Z,2.92
2024-02-16T19:15:10.671Z,2.92
2024-02-16T19:17:40.598Z,2.91
2024-02-16T19:20:10.133Z,2.91
2024-02-16T19:22:38.657Z,2.91
2024-02-16T19:25:08.699Z,2.88
2024-02-16T19:27:37.221Z,2.85
2024-02-16T19:30:08.088Z,2.90
2024-02-16T19:32:36.733Z,2.84
2024-02-16T19:35:08.416Z,2.80
2024-02-16T19:37:36.904Z,2.81
2024-02-16T19:40:05.969Z,2.84
2024-02-16T19:42:34.958Z,2.82
2024-02-16T19:45:04.078Z,2.82
2024-02-16T19:47:32.774Z,2.87
2024-02-16T19:50:01.259Z,2.81
2024-02-16T19:52:31.164Z,2.81
2024-02-16T19:55:00.711Z,2.73
2024-02-16T19:57:29.168Z,2.73
2024-02-16T19:59:58.442Z,2.71
2024-02-16T20:02:27.303Z,2.65
2024-02-16T20:04:55.728Z,2.60
2024-02-16T20:07:25.450Z,2.63
2024-02-16T20:09:56.550Z,2.59
2024-02-16T20:12:26.124Z,2.62
2024-02-16T20:14:55.390Z,2.56
2024-02-16T20:17:24.107Z,2.48
2024-02-16T20:19:55.143Z,2.53
2024-02-16T20:22:23.985Z,2.57
2024-02-16T20:24:52.387Z,2.47
2024-02-16T20:27:22.249Z,2.46
2024-02-16T20:29:50.699Z,2.52
2024-02-16T20:32:19.708Z,2.47
2024-02-16T20:34:48.242Z,2.52
2024-02-16T20:37:16.818Z,2.40
2024-02-16T20:39:45.342Z,2.48
2024-02-16T20:42:14.177Z,2.44
2024-02-16T20:44:44.109Z,2.47
2024-02-16T20:47:12.695Z,2.46
2024-02-16T20:49:41.126Z,2.45
2024-02-16T20:52:09.583Z,2.46
2024-02-16T20:54:38.318Z,2.44
2024-02-16T20:57:08.656Z,2.44
2024-02-16T20:59:37.131Z,2.45
2024-02-16T21:02:07.068Z,2.43
2024-02-16T21:04:36.713Z,2.42
2024-02-16T21:07:06.452Z,2.42
2024-02-16T21:09:35.106Z,2.45
2024-02-16T21:12:04.739Z,2.42
2024-02-16T21:14:33.500Z,2.44
2024-02-16T21:17:02.536Z,2.42
2024-02-16T21:19:34.046Z,2.39
2024-02-16T21:22:03.001Z,2.40
2024-02-16T21:24:31.494Z,2.40
2024-02-16T21:27:00.083Z,2.35
2024-02-16T21:29:28.845Z,2.36
2024-02-16T21:31:57.463Z,2.36
2024-02-16T21:34:25.935Z,2.32
2024-02-16T21:36:58.959Z,2.30
2024-02-16T21:39:27.739Z,2.43
2024-02-16T21:41:56.248Z,2.40
2024-02-16T21:44:24.671Z,2.47
2024-02-16T21:46:53.484Z,2.52
2024-02-16T21:49:22.704Z,2.46
2024-02-16T21:51:51.367Z,2.39
2024-02-16T21:54:22.082Z,2.31
2024-02-16T21:56:50.458Z,2.25
2024-02-16T21:59:20.154Z,2.22
2024-02-16T22:01:49.093Z,2.30
2024-02-16T22:04:17.569Z,2.25
2024-02-16T22:06:46.731Z,2.16
2024-02-16T22:09:15.368Z,2.24
2024-02-16T22:11:45.336Z,2.21
2024-02-16T22:14:13.794Z,2.20
2024-02-16T22:16:42.817Z,2.17
2024-02-16T22:19:11.318Z,2.18
2024-02-16T22:21:43.077Z,2.17
2024-02-16T22:24:12.352Z,2.18
2024-02-16T22:26:42.050Z,2.19
2024-02-16T22:29:11.997Z,2.20
2024-02-16T22:31:43.232Z,2.14
2024-02-16T22:34:14.396Z,2.17
2024-02-16T22:36:42.959Z,2.18
2024-02-16T22:39:11.526Z,2.15
2024-02-16T22:41:39.900Z,2.14
2024-02-16T22:44:08.517Z,2.09
2024-02-16T22:46:38.910Z,2.04
2024-02-16T22:49:07.444Z,2.03
2024-02-16T22:51:40.283Z,2.06
2024-02-16T22:54:15.845Z,2.02
2024-02-16T22:56:45.384Z,2.06
2024-02-16T22:59:13.824Z,2.04
2024-02-16T23:01:43.737Z,2.08
2024-02-16T23:04:12.352Z,2.10
2024-02-16T23:06:41.027Z,2.17
2024-02-16T23:09:10.379Z,2.12
2024-02-16T23:11:40.619Z,2.16
2024-02-16T23:14:11.245Z,2.19
2024-02-16T23:16:39.838Z,2.15
2024-02-16T23:19:09.871Z,2.16
2024-02-16T23:21:38.360Z,2.14
2024-02-16T23:24:08.181Z,2.11
2024-02-16T23:26:36.733Z,2.08
2024-02-16T23:29:05.209Z,2.09
2024-02-16T23:31:33.714Z,2.12
2024-02-16T23:34:02.206Z,2.10
2024-02-16T23:36:32.216Z,2.15
2024-02-16T23:39:00.648Z,2.13
2024-02-16T23:41:29.366Z,2.10
2024-02-16T23:43:58.376Z,2.09
2024-02-16T23:46:26.749Z,2.03
2024-02-16T23:48:56.283Z,2.05
2024-02-16T23:51:24.987Z,2.07
2024-02-16T23:53:54.795Z,2.01
2024-02-16T23:56:23.274Z,2.00
2024-02-16T23:58:51.762Z,1.98
